WetterOnline ( https://www.wetteronline.de )

Wetter aktuell Dvur Kralove nad Labem

Aktuelles Wetter: Polom (747m)

6-stündlich | Neueste Meldungen
Ortszeit Temperatur Wetter
Mi, 08.07. 8:00 11.7° C leicht bewölkt
Mi, 08.07. 2:00 10.7° C wolkig
Di, 07.07. 20:00 12.5° C fast wolkenlos
Di, 07.07. 14:00 13.4° C wolkig
Di, 07.07. 8:00 8.9° C leicht bewölkt
Di, 07.07. 2:00 9.5° C wolkenlos
Mo, 06.07. 20:00 15.2° C leicht bewölkt
Mo, 06.07. 14:00 15.1° C bedeckt
Ortszeit Temperatur Wetter
Mi, 08.07. 13:00 13.0° C leichter Regen
Mi, 08.07. 12:00 13.5° C bedeckt
Mi, 08.07. 11:00 13.7° C bewölkt
Mi, 08.07. 10:00 14.0° C bewölkt
Mi, 08.07. 9:00 12.7° C wolkig
Mi, 08.07. 8:00 11.7° C leicht bewölkt
Ortszeit Relative Feuchte Sichtweite
Mi, 08.07. 8:00 77% 20 km
Mi, 08.07. 2:00 80% 20 km
Di, 07.07. 20:00 73% 50 km
Di, 07.07. 14:00 67% 50 km
Di, 07.07. 8:00 91% 40 km
Di, 07.07. 2:00 82% 30 km
Mo, 06.07. 20:00 61% 30 km
Mo, 06.07. 14:00 99% 2.5 km
Ortszeit Relative Feuchte Sichtweite
Mi, 08.07. 13:00 87% 8 km
Mi, 08.07. 12:00 72% 20 km
Mi, 08.07. 11:00 75% 20 km
Mi, 08.07. 10:00 72% 20 km
Mi, 08.07. 9:00 82% 20 km
Mi, 08.07. 8:00 77% 20 km
Ortszeit Niederschlagsmenge Niederschlagsart
Mi, 08.07. 8:00 0.0 l/m2 in 12 Std. -
Mi, 08.07. 2:00 0.0 l/m2 in 6 Std. -
Di, 07.07. 20:00 0.0 l/m2 in 12 Std. -
Di, 07.07. 14:00 0.0 l/m2 in 6 Std. -
Di, 07.07. 8:00 0.0 l/m2 in 12 Std. -
Di, 07.07. 2:00 0.0 l/m2 in 6 Std. -
Mo, 06.07. 20:00 2 l/m2 in 12 Std. Regen
Mo, 06.07. 14:00 2 l/m2 in 6 Std. Regen
Ortszeit Niederschlagsmenge Niederschlagsart
Mi, 08.07. 13:00 0.1 l/m2 in 1 Std. Regen
Mi, 08.07. 12:00 0.0 l/m2 in 1 Std. -
Mi, 08.07. 11:00 0.0 l/m2 in 1 Std. -
Mi, 08.07. 10:00 0.0 l/m2 in 1 Std. -
Mi, 08.07. 9:00 0.0 l/m2 in 1 Std. -
Mi, 08.07. 8:00 0.0 l/m2 in 1 Std. -
Ortszeit Stärke Spitze Richtung
km/h Bft. km/h Grad Sektor
Mi, 08.07. 8:00 7 2 - 160° S
Mi, 08.07. 2:00 11 2 - 160° S
Di, 07.07. 20:00 7 2 - 240° SW
Di, 07.07. 14:00 11 2 - 260° W
Di, 07.07. 8:00 4 1 - uml. uml.
Di, 07.07. 2:00 7 2 - 320° NW
Mo, 06.07. 20:00 11 2 - 340° N
Mo, 06.07. 14:00 14 3 - 200° S
Ortszeit Stärke Spitze Richtung
km/h Bft. km/h Grad Sektor
Mi, 08.07. 13:00 11 2 - 210° SW
Mi, 08.07. 12:00 11 2 - 230° SW
Mi, 08.07. 11:00 7 2 - 230° SW
Mi, 08.07. 10:00 7 2 - 210° SW
Mi, 08.07. 9:00 7 2 - 220° SW
Mi, 08.07. 8:00 7 2 - 160° S
Ortszeit Untergrenze Bedeckung Gattung
total tief tief mittel hoch
Mi, 08.07. 8:00 6900 m 6/8 0/8 - - Ci
Mi, 08.07. 2:00 3300 m 8/8 8/8 - Ns -
Di, 07.07. 20:00 1350 m 2/8 1/8 Sc Ac -
Di, 07.07. 14:00 810 m 6/8 6/8 Cu - -
Di, 07.07. 8:00 660 m 3/8 3/8 Sc - -
Di, 07.07. 2:00 - 0/8 0/8 - - -
Mo, 06.07. 20:00 3000 m 6/8 6/8 - Ac -
Mo, 06.07. 14:00 90 m 8/8 8/8 St - -
Ortszeit Bedeckungsgrad in Achtel und Wolkenuntergrenze
Mi, 08.07. 13:00 8(870m)
Mi, 08.07. 12:00 8(810m)
Mi, 08.07. 11:00 7(1410m)
Mi, 08.07. 10:00 7(1500m)
Mi, 08.07. 9:00 8(1800m)
Mi, 08.07. 8:00 6(6900m)
Ortszeit Stationsdruck (hPa) Tendenz (hPa in 3 Std.)
Mi, 08.07. 8:00 930 - 0,1
Mi, 08.07. 2:00 931 - 0,7
Di, 07.07. 20:00 932 - 0,5
Di, 07.07. 14:00 933 + 0,1
Di, 07.07. 8:00 932 + 1,4
Di, 07.07. 2:00 931 + 0,4
Mo, 06.07. 20:00 927 + 1,1
Mo, 06.07. 14:00 927 + 0,8
Ortszeit Stationsdruck (hPa) Tendenz (hPa in 3 Std.)
Mi, 08.07. 13:00 931 + 0,2
Mi, 08.07. 12:00 931 - 0,2
Mi, 08.07. 11:00 931 + 0,4
Mi, 08.07. 10:00 931 + 0,7
Mi, 08.07. 9:00 931 + 0,5
Mi, 08.07. 8:00 930 - 0,1
Ortszeit Schneehöhe (cm)
Mi, 08.07. 8:00 -
Mi, 08.07. 2:00 -
Di, 07.07. 20:00 -
Di, 07.07. 14:00 -
Di, 07.07. 8:00 -
Di, 07.07. 2:00 -
Mo, 06.07. 20:00 -
Mo, 06.07. 14:00 -
Ortszeit Schneehöhe (cm)
Mi, 08.07. 13:00 -
Mi, 08.07. 12:00 -
Mi, 08.07. 11:00 -
Mi, 08.07. 10:00 -
Mi, 08.07. 9:00 -
Mi, 08.07. 8:00 -
Link zu dieser Seite / Seite empfehlen

Das Wetter in ...